sensor_id;sensor_type;location;lat;lon;timestamp;P1;durP1;ratioP1;P2;durP2;ratioP2
5795;SDS011;2924;51.458;7.046;2022-07-23T00:01:17;13.63;;;9.20;;
5795;SDS011;2924;51.458;7.046;2022-07-23T00:03:43;18.93;;;9.87;;
5795;SDS011;2924;51.458;7.046;2022-07-23T00:06:08;23.53;;;11.03;;
5795;SDS011;2924;51.458;7.046;2022-07-23T00:08:34;17.80;;;10.43;;
5795;SDS011;2924;51.458;7.046;2022-07-23T00:11:00;22.10;;;12.00;;
5795;SDS011;2924;51.458;7.046;2022-07-23T00:13:26;19.40;;;10.60;;
5795;SDS011;2924;51.458;7.046;2022-07-23T00:15:52;18.03;;;11.03;;
5795;SDS011;2924;51.458;7.046;2022-07-23T00:18:17;23.27;;;10.60;;
5795;SDS011;2924;51.458;7.046;2022-07-23T00:20:43;22.07;;;11.27;;
5795;SDS011;2924;51.458;7.046;2022-07-23T00:23:09;18.90;;;11.60;;
5795;SDS011;2924;51.458;7.046;2022-07-23T00:25:35;21.67;;;11.63;;
5795;SDS011;2924;51.458;7.046;2022-07-23T00:28:01;24.00;;;13.00;;
5795;SDS011;2924;51.458;7.046;2022-07-23T00:30:28;20.90;;;13.93;;
5795;SDS011;2924;51.458;7.046;2022-07-23T00:32:56;23.27;;;13.97;;
5795;SDS011;2924;51.458;7.046;2022-07-23T00:35:28;21.20;;;11.90;;
5795;SDS011;2924;51.458;7.046;2022-07-23T00:37:56;25.77;;;14.70;;
5795;SDS011;2924;51.458;7.046;2022-07-23T00:40:23;25.40;;;13.50;;
5795;SDS011;2924;51.458;7.046;2022-07-23T00:42:50;18.17;;;12.87;;
5795;SDS011;2924;51.458;7.046;2022-07-23T00:45:16;25.63;;;15.40;;
5795;SDS011;2924;51.458;7.046;2022-07-23T00:47:41;20.07;;;16.30;;
5795;SDS011;2924;51.458;7.046;2022-07-23T00:50:08;26.00;;;15.50;;
5795;SDS011;2924;51.458;7.046;2022-07-23T00:52:35;20.87;;;16.60;;
5795;SDS011;2924;51.458;7.046;2022-07-23T00:55:02;26.63;;;17.07;;
5795;SDS011;2924;51.458;7.046;2022-07-23T00:57:28;26.60;;;17.73;;
5795;SDS011;2924;51.458;7.046;2022-07-23T00:59:54;29.00;;;16.83;;
5795;SDS011;2924;51.458;7.046;2022-07-23T01:02:20;32.67;;;18.83;;
5795;SDS011;2924;51.458;7.046;2022-07-23T01:04:46;33.30;;;20.20;;
5795;SDS011;2924;51.458;7.046;2022-07-23T01:07:12;31.23;;;18.80;;
5795;SDS011;2924;51.458;7.046;2022-07-23T01:09:37;38.50;;;19.40;;
5795;SDS011;2924;51.458;7.046;2022-07-23T01:12:03;32.50;;;19.70;;
5795;SDS011;2924;51.458;7.046;2022-07-23T01:14:30;29.73;;;18.33;;
5795;SDS011;2924;51.458;7.046;2022-07-23T01:16:55;33.13;;;20.50;;
5795;SDS011;2924;51.458;7.046;2022-07-23T01:19:21;34.77;;;22.00;;
5795;SDS011;2924;51.458;7.046;2022-07-23T01:21:48;31.70;;;20.20;;
5795;SDS011;2924;51.458;7.046;2022-07-23T01:24:15;30.27;;;19.43;;
5795;SDS011;2924;51.458;7.046;2022-07-23T01:26:42;25.90;;;16.90;;
5795;SDS011;2924;51.458;7.046;2022-07-23T01:29:09;36.33;;;17.90;;
5795;SDS011;2924;51.458;7.046;2022-07-23T01:31:36;32.67;;;18.33;;
5795;SDS011;2924;51.458;7.046;2022-07-23T01:34:01;24.30;;;16.33;;
5795;SDS011;2924;51.458;7.046;2022-07-23T01:36:28;31.33;;;20.00;;
5795;SDS011;2924;51.458;7.046;2022-07-23T01:38:54;28.10;;;18.37;;
5795;SDS011;2924;51.458;7.046;2022-07-23T01:41:19;26.47;;;15.07;;
5795;SDS011;2924;51.458;7.046;2022-07-23T01:43:45;34.07;;;18.70;;
5795;SDS011;2924;51.458;7.046;2022-07-23T01:46:11;33.20;;;18.20;;
5795;SDS011;2924;51.458;7.046;2022-07-23T01:48:37;29.00;;;15.50;;
5795;SDS011;2924;51.458;7.046;2022-07-23T01:51:03;22.70;;;14.43;;
5795;SDS011;2924;51.458;7.046;2022-07-23T01:53:29;26.60;;;17.43;;
5795;SDS011;2924;51.458;7.046;2022-07-23T01:55:56;34.03;;;20.40;;
5795;SDS011;2924;51.458;7.046;2022-07-23T01:58:22;31.17;;;18.20;;
5795;SDS011;2924;51.458;7.046;2022-07-23T02:00:49;26.10;;;17.07;;
5795;SDS011;2924;51.458;7.046;2022-07-23T02:03:14;34.63;;;19.00;;
5795;SDS011;2924;51.458;7.046;2022-07-23T02:05:40;28.13;;;17.37;;
5795;SDS011;2924;51.458;7.046;2022-07-23T02:08:06;26.80;;;18.07;;
5795;SDS011;2924;51.458;7.046;2022-07-23T02:10:32;22.87;;;16.63;;
5795;SDS011;2924;51.458;7.046;2022-07-23T02:12:57;26.93;;;15.63;;
5795;SDS011;2924;51.458;7.046;2022-07-23T02:15:23;29.37;;;16.87;;
5795;SDS011;2924;51.458;7.046;2022-07-23T02:17:49;24.30;;;14.63;;
5795;SDS011;2924;51.458;7.046;2022-07-23T02:20:14;26.57;;;15.30;;
5795;SDS011;2924;51.458;7.046;2022-07-23T02:22:40;25.30;;;15.90;;
5795;SDS011;2924;51.458;7.046;2022-07-23T02:25:06;19.97;;;14.23;;
5795;SDS011;2924;51.458;7.046;2022-07-23T02:27:32;26.10;;;16.77;;
5795;SDS011;2924;51.458;7.046;2022-07-23T02:29:58;27.43;;;16.73;;
5795;SDS011;2924;51.458;7.046;2022-07-23T02:32:24;28.03;;;15.47;;
5795;SDS011;2924;51.458;7.046;2022-07-23T02:34:50;38.27;;;16.63;;
5795;SDS011;2924;51.458;7.046;2022-07-23T02:37:16;22.23;;;15.73;;
5795;SDS011;2924;51.458;7.046;2022-07-23T02:39:42;30.37;;;19.17;;
5795;SDS011;2924;51.458;7.046;2022-07-23T02:42:08;26.70;;;16.87;;
5795;SDS011;2924;51.458;7.046;2022-07-23T02:44:34;35.50;;;18.33;;
5795;SDS011;2924;51.458;7.046;2022-07-23T02:47:00;28.70;;;18.50;;
5795;SDS011;2924;51.458;7.046;2022-07-23T02:49:26;31.33;;;15.67;;
5795;SDS011;2924;51.458;7.046;2022-07-23T02:51:51;27.20;;;17.80;;
5795;SDS011;2924;51.458;7.046;2022-07-23T02:54:17;28.90;;;17.40;;
5795;SDS011;2924;51.458;7.046;2022-07-23T02:56:43;27.47;;;18.77;;
5795;SDS011;2924;51.458;7.046;2022-07-23T02:59:09;36.57;;;20.80;;
5795;SDS011;2924;51.458;7.046;2022-07-23T03:01:34;41.93;;;17.73;;
5795;SDS011;2924;51.458;7.046;2022-07-23T03:04:00;32.57;;;19.10;;
5795;SDS011;2924;51.458;7.046;2022-07-23T03:06:26;28.37;;;17.47;;
5795;SDS011;2924;51.458;7.046;2022-07-23T03:08:52;27.47;;;18.40;;
5795;SDS011;2924;51.458;7.046;2022-07-23T03:11:17;28.63;;;18.50;;
5795;SDS011;2924;51.458;7.046;2022-07-23T03:13:43;29.70;;;17.87;;
5795;SDS011;2924;51.458;7.046;2022-07-23T03:16:09;29.60;;;18.43;;
5795;SDS011;2924;51.458;7.046;2022-07-23T03:18:34;36.03;;;21.20;;
5795;SDS011;2924;51.458;7.046;2022-07-23T03:21:00;30.03;;;17.70;;
5795;SDS011;2924;51.458;7.046;2022-07-23T03:23:26;30.77;;;17.70;;
5795;SDS011;2924;51.458;7.046;2022-07-23T03:25:52;31.60;;;19.20;;
5795;SDS011;2924;51.458;7.046;2022-07-23T03:28:18;34.00;;;17.80;;
5795;SDS011;2924;51.458;7.046;2022-07-23T03:30:44;36.00;;;18.93;;
5795;SDS011;2924;51.458;7.046;2022-07-23T03:33:15;31.87;;;19.83;;
5795;SDS011;2924;51.458;7.046;2022-07-23T03:35:42;35.03;;;19.60;;
5795;SDS011;2924;51.458;7.046;2022-07-23T03:38:11;28.10;;;17.17;;
5795;SDS011;2924;51.458;7.046;2022-07-23T03:40:37;31.03;;;17.57;;
5795;SDS011;2924;51.458;7.046;2022-07-23T03:43:03;32.47;;;20.90;;
5795;SDS011;2924;51.458;7.046;2022-07-23T03:45:28;28.23;;;18.60;;
5795;SDS011;2924;51.458;7.046;2022-07-23T03:47:54;28.40;;;17.67;;
5795;SDS011;2924;51.458;7.046;2022-07-23T03:50:20;29.70;;;18.13;;
5795;SDS011;2924;51.458;7.046;2022-07-23T03:52:46;26.73;;;15.47;;
5795;SDS011;2924;51.458;7.046;2022-07-23T03:55:12;35.10;;;19.43;;
5795;SDS011;2924;51.458;7.046;2022-07-23T03:57:38;30.17;;;19.20;;
5795;SDS011;2924;51.458;7.046;2022-07-23T04:00:04;34.17;;;20.97;;
5795;SDS011;2924;51.458;7.046;2022-07-23T04:02:32;36.03;;;20.73;;
5795;SDS011;2924;51.458;7.046;2022-07-23T04:04:57;43.57;;;22.20;;
5795;SDS011;2924;51.458;7.046;2022-07-23T04:07:24;37.10;;;19.30;;
5795;SDS011;2924;51.458;7.046;2022-07-23T04:09:50;27.70;;;17.73;;
5795;SDS011;2924;51.458;7.046;2022-07-23T04:12:15;33.13;;;20.10;;
5795;SDS011;2924;51.458;7.046;2022-07-23T04:14:41;29.40;;;17.37;;
5795;SDS011;2924;51.458;7.046;2022-07-23T04:17:07;31.97;;;17.77;;
5795;SDS011;2924;51.458;7.046;2022-07-23T04:19:33;30.57;;;17.87;;
5795;SDS011;2924;51.458;7.046;2022-07-23T04:22:00;42.30;;;20.50;;
5795;SDS011;2924;51.458;7.046;2022-07-23T04:24:26;27.43;;;17.03;;
5795;SDS011;2924;51.458;7.046;2022-07-23T04:26:51;24.50;;;16.33;;
5795;SDS011;2924;51.458;7.046;2022-07-23T04:29:18;30.90;;;16.37;;
5795;SDS011;2924;51.458;7.046;2022-07-23T04:31:43;29.73;;;17.50;;
5795;SDS011;2924;51.458;7.046;2022-07-23T04:34:09;23.77;;;16.23;;
5795;SDS011;2924;51.458;7.046;2022-07-23T04:36:35;26.77;;;16.60;;
5795;SDS011;2924;51.458;7.046;2022-07-23T04:39:00;26.90;;;17.20;;
5795;SDS011;2924;51.458;7.046;2022-07-23T04:41:26;38.43;;;19.70;;
5795;SDS011;2924;51.458;7.046;2022-07-23T04:43:52;34.13;;;17.70;;
5795;SDS011;2924;51.458;7.046;2022-07-23T04:46:17;30.67;;;19.37;;
5795;SDS011;2924;51.458;7.046;2022-07-23T04:48:43;25.80;;;16.37;;
5795;SDS011;2924;51.458;7.046;2022-07-23T04:51:09;24.77;;;14.50;;
5795;SDS011;2924;51.458;7.046;2022-07-23T04:53:36;23.00;;;15.47;;
5795;SDS011;2924;51.458;7.046;2022-07-23T04:56:03;22.10;;;15.20;;
5795;SDS011;2924;51.458;7.046;2022-07-23T04:58:29;24.73;;;16.23;;
5795;SDS011;2924;51.458;7.046;2022-07-23T05:00:56;22.43;;;14.90;;
5795;SDS011;2924;51.458;7.046;2022-07-23T05:03:23;29.07;;;16.60;;
5795;SDS011;2924;51.458;7.046;2022-07-23T05:05:48;17.30;;;13.23;;
5795;SDS011;2924;51.458;7.046;2022-07-23T05:08:15;16.27;;;12.70;;
5795;SDS011;2924;51.458;7.046;2022-07-23T05:10:40;19.90;;;14.37;;
5795;SDS011;2924;51.458;7.046;2022-07-23T05:13:06;12.30;;;11.10;;
5795;SDS011;2924;51.458;7.046;2022-07-23T05:15:32;12.07;;;10.63;;
5795;SDS011;2924;51.458;7.046;2022-07-23T05:17:58;19.37;;;13.10;;
5795;SDS011;2924;51.458;7.046;2022-07-23T05:20:23;11.47;;;10.37;;
5795;SDS011;2924;51.458;7.046;2022-07-23T05:22:49;13.53;;;11.87;;
5795;SDS011;2924;51.458;7.046;2022-07-23T05:25:15;15.50;;;11.17;;
5795;SDS011;2924;51.458;7.046;2022-07-23T05:27:40;16.00;;;11.80;;
5795;SDS011;2924;51.458;7.046;2022-07-23T05:30:06;15.87;;;11.83;;
5795;SDS011;2924;51.458;7.046;2022-07-23T05:32:32;13.13;;;11.33;;
5795;SDS011;2924;51.458;7.046;2022-07-23T05:34:58;17.00;;;13.10;;
5795;SDS011;2924;51.458;7.046;2022-07-23T05:37:24;16.40;;;12.60;;
5795;SDS011;2924;51.458;7.046;2022-07-23T05:39:50;14.20;;;11.83;;
5795;SDS011;2924;51.458;7.046;2022-07-23T05:42:15;12.80;;;11.07;;
5795;SDS011;2924;51.458;7.046;2022-07-23T05:44:41;16.33;;;13.87;;
5795;SDS011;2924;51.458;7.046;2022-07-23T05:47:07;19.37;;;14.07;;
5795;SDS011;2924;51.458;7.046;2022-07-23T05:49:32;21.37;;;15.60;;
5795;SDS011;2924;51.458;7.046;2022-07-23T05:51:58;22.03;;;13.83;;
5795;SDS011;2924;51.458;7.046;2022-07-23T05:54:28;16.37;;;12.17;;
5795;SDS011;2924;51.458;7.046;2022-07-23T05:56:53;17.30;;;13.63;;
5795;SDS011;2924;51.458;7.046;2022-07-23T05:59:19;18.40;;;14.60;;
5795;SDS011;2924;51.458;7.046;2022-07-23T06:01:45;16.93;;;14.90;;
5795;SDS011;2924;51.458;7.046;2022-07-23T06:04:10;25.23;;;15.67;;
5795;SDS011;2924;51.458;7.046;2022-07-23T06:06:36;16.33;;;12.63;;
5795;SDS011;2924;51.458;7.046;2022-07-23T06:09:02;20.90;;;14.90;;
5795;SDS011;2924;51.458;7.046;2022-07-23T06:11:28;22.27;;;14.47;;
5795;SDS011;2924;51.458;7.046;2022-07-23T06:13:54;21.70;;;15.30;;
5795;SDS011;2924;51.458;7.046;2022-07-23T06:16:20;20.10;;;13.03;;
5795;SDS011;2924;51.458;7.046;2022-07-23T06:18:46;22.23;;;13.90;;
5795;SDS011;2924;51.458;7.046;2022-07-23T06:21:11;20.53;;;14.50;;
5795;SDS011;2924;51.458;7.046;2022-07-23T06:23:37;18.30;;;13.30;;
5795;SDS011;2924;51.458;7.046;2022-07-23T06:26:03;18.67;;;13.93;;
5795;SDS011;2924;51.458;7.046;2022-07-23T06:28:28;18.90;;;14.23;;
5795;SDS011;2924;51.458;7.046;2022-07-23T06:30:54;19.27;;;13.80;;
5795;SDS011;2924;51.458;7.046;2022-07-23T06:33:20;26.83;;;16.57;;
5795;SDS011;2924;51.458;7.046;2022-07-23T06:35:45;17.20;;;13.20;;
5795;SDS011;2924;51.458;7.046;2022-07-23T06:38:11;17.60;;;12.93;;
5795;SDS011;2924;51.458;7.046;2022-07-23T06:40:37;25.00;;;15.17;;
5795;SDS011;2924;51.458;7.046;2022-07-23T06:43:03;16.87;;;14.27;;
5795;SDS011;2924;51.458;7.046;2022-07-23T06:45:29;20.00;;;13.83;;
5795;SDS011;2924;51.458;7.046;2022-07-23T06:47:54;15.87;;;13.20;;
5795;SDS011;2924;51.458;7.046;2022-07-23T06:50:20;19.67;;;14.53;;
5795;SDS011;2924;51.458;7.046;2022-07-23T06:52:46;20.43;;;14.30;;
5795;SDS011;2924;51.458;7.046;2022-07-23T06:55:11;16.50;;;12.10;;
5795;SDS011;2924;51.458;7.046;2022-07-23T06:57:37;17.97;;;15.13;;
5795;SDS011;2924;51.458;7.046;2022-07-23T07:00:03;15.53;;;12.70;;
5795;SDS011;2924;51.458;7.046;2022-07-23T07:02:29;14.20;;;10.80;;
5795;SDS011;2924;51.458;7.046;2022-07-23T07:04:55;17.03;;;11.97;;
5795;SDS011;2924;51.458;7.046;2022-07-23T07:07:21;13.70;;;11.87;;
5795;SDS011;2924;51.458;7.046;2022-07-23T07:09:47;18.57;;;11.87;;
5795;SDS011;2924;51.458;7.046;2022-07-23T07:12:12;19.67;;;14.97;;
5795;SDS011;2924;51.458;7.046;2022-07-23T07:14:38;13.83;;;10.83;;
5795;SDS011;2924;51.458;7.046;2022-07-23T07:17:03;14.10;;;11.17;;
5795;SDS011;2924;51.458;7.046;2022-07-23T07:19:29;16.23;;;11.37;;
5795;SDS011;2924;51.458;7.046;2022-07-23T07:21:55;16.87;;;10.63;;
5795;SDS011;2924;51.458;7.046;2022-07-23T07:24:21;15.10;;;10.07;;
5795;SDS011;2924;51.458;7.046;2022-07-23T07:26:46;18.17;;;11.30;;
5795;SDS011;2924;51.458;7.046;2022-07-23T07:29:12;14.70;;;11.67;;
5795;SDS011;2924;51.458;7.046;2022-07-23T07:31:38;20.07;;;12.90;;
5795;SDS011;2924;51.458;7.046;2022-07-23T07:34:04;14.67;;;11.00;;
5795;SDS011;2924;51.458;7.046;2022-07-23T07:36:29;17.43;;;12.80;;
5795;SDS011;2924;51.458;7.046;2022-07-23T07:38:55;20.93;;;15.23;;
5795;SDS011;2924;51.458;7.046;2022-07-23T07:41:21;17.77;;;13.30;;
5795;SDS011;2924;51.458;7.046;2022-07-23T07:43:49;14.50;;;12.03;;
5795;SDS011;2924;51.458;7.046;2022-07-23T07:46:15;18.10;;;13.17;;
5795;SDS011;2924;51.458;7.046;2022-07-23T07:48:41;15.33;;;10.50;;
5795;SDS011;2924;51.458;7.046;2022-07-23T07:51:07;20.20;;;14.07;;
5795;SDS011;2924;51.458;7.046;2022-07-23T07:53:33;17.17;;;13.10;;
5795;SDS011;2924;51.458;7.046;2022-07-23T07:55:59;14.80;;;12.20;;
5795;SDS011;2924;51.458;7.046;2022-07-23T07:58:24;18.27;;;14.30;;
5795;SDS011;2924;51.458;7.046;2022-07-23T08:00:50;22.57;;;16.47;;
5795;SDS011;2924;51.458;7.046;2022-07-23T08:03:16;12.60;;;10.73;;
5795;SDS011;2924;51.458;7.046;2022-07-23T08:05:42;11.70;;;9.93;;
5795;SDS011;2924;51.458;7.046;2022-07-23T08:08:07;12.47;;;11.17;;
5795;SDS011;2924;51.458;7.046;2022-07-23T08:10:34;15.97;;;12.17;;
5795;SDS011;2924;51.458;7.046;2022-07-23T08:13:00;17.33;;;13.40;;
5795;SDS011;2924;51.458;7.046;2022-07-23T08:15:27;13.20;;;11.80;;
5795;SDS011;2924;51.458;7.046;2022-07-23T08:17:54;14.60;;;13.10;;
5795;SDS011;2924;51.458;7.046;2022-07-23T08:20:21;13.13;;;11.50;;
5795;SDS011;2924;51.458;7.046;2022-07-23T08:22:52;13.03;;;10.53;;
5795;SDS011;2924;51.458;7.046;2022-07-23T08:25:27;15.13;;;10.03;;
5795;SDS011;2924;51.458;7.046;2022-07-23T08:27:54;13.60;;;7.73;;
5795;SDS011;2924;51.458;7.046;2022-07-23T08:30:21;7.80;;;7.00;;
5795;SDS011;2924;51.458;7.046;2022-07-23T08:33:08;13.17;;;7.17;;
5795;SDS011;2924;51.458;7.046;2022-07-23T08:35:41;6.03;;;5.33;;
5795;SDS011;2924;51.458;7.046;2022-07-23T08:38:10;7.67;;;5.77;;
5795;SDS011;2924;51.458;7.046;2022-07-23T08:40:38;8.23;;;5.57;;
5795;SDS011;2924;51.458;7.046;2022-07-23T08:43:08;6.05;;;3.80;;
5795;SDS011;2924;51.458;7.046;2022-07-23T08:45:36;7.15;;;5.43;;
5795;SDS011;2924;51.458;7.046;2022-07-23T08:48:16;11.20;;;4.25;;
5795;SDS011;2924;51.458;7.046;2022-07-23T08:50:44;5.65;;;4.03;;
5795;SDS011;2924;51.458;7.046;2022-07-23T08:53:11;5.00;;;3.30;;
5795;SDS011;2924;51.458;7.046;2022-07-23T08:55:37;5.50;;;5.00;;
5795;SDS011;2924;51.458;7.046;2022-07-23T08:58:03;6.82;;;4.70;;
5795;SDS011;2924;51.458;7.046;2022-07-23T09:00:29;4.35;;;3.97;;
5795;SDS011;2924;51.458;7.046;2022-07-23T09:02:55;10.70;;;4.95;;
5795;SDS011;2924;51.458;7.046;2022-07-23T09:05:21;4.68;;;3.03;;
5795;SDS011;2924;51.458;7.046;2022-07-23T09:13:27;2.75;;;2.53;;
5795;SDS011;2924;51.458;7.046;2022-07-23T09:16:09;5.32;;;2.78;;
5795;SDS011;2924;51.458;7.046;2022-07-23T09:21:16;5.15;;;2.50;;
5795;SDS011;2924;51.458;7.046;2022-07-23T09:28:51;3.28;;;2.53;;
5795;SDS011;2924;51.458;7.046;2022-07-23T09:31:20;2.97;;;2.45;;
5795;SDS011;2924;51.458;7.046;2022-07-23T09:33:47;3.30;;;2.67;;
5795;SDS011;2924;51.458;7.046;2022-07-23T09:36:13;4.70;;;3.53;;
5795;SDS011;2924;51.458;7.046;2022-07-23T09:38:49;7.10;;;2.38;;
5795;SDS011;2924;51.458;7.046;2022-07-23T09:41:15;5.15;;;3.25;;
5795;SDS011;2924;51.458;7.046;2022-07-23T09:43:41;5.65;;;3.28;;
5795;SDS011;2924;51.458;7.046;2022-07-23T09:46:21;6.88;;;2.40;;
5795;SDS011;2924;51.458;7.046;2022-07-23T09:48:52;2.80;;;1.92;;
5795;SDS011;2924;51.458;7.046;2022-07-23T09:51:21;3.17;;;2.47;;
5795;SDS011;2924;51.458;7.046;2022-07-23T09:54:00;5.03;;;2.20;;
5795;SDS011;2924;51.458;7.046;2022-07-23T09:56:26;8.73;;;2.20;;
5795;SDS011;2924;51.458;7.046;2022-07-23T09:58:52;3.88;;;2.38;;
5795;SDS011;2924;51.458;7.046;2022-07-23T10:01:29;5.78;;;2.63;;
5795;SDS011;2924;51.458;7.046;2022-07-23T10:03:56;5.43;;;2.47;;
5795;SDS011;2924;51.458;7.046;2022-07-23T10:06:23;3.42;;;2.40;;
5795;SDS011;2924;51.458;7.046;2022-07-23T10:08:49;6.03;;;3.30;;
5795;SDS011;2924;51.458;7.046;2022-07-23T10:11:16;3.72;;;2.30;;
5795;SDS011;2924;51.458;7.046;2022-07-23T10:13:42;3.65;;;2.38;;
5795;SDS011;2924;51.458;7.046;2022-07-23T10:16:16;3.30;;;2.33;;
5795;SDS011;2924;51.458;7.046;2022-07-23T10:18:42;5.55;;;2.88;;
5795;SDS011;2924;51.458;7.046;2022-07-23T10:21:08;2.83;;;1.98;;
5795;SDS011;2924;51.458;7.046;2022-07-23T10:23:42;3.85;;;3.20;;
5795;SDS011;2924;51.458;7.046;2022-07-23T10:26:29;3.70;;;2.60;;
5795;SDS011;2924;51.458;7.046;2022-07-23T10:37:51;4.65;;;2.65;;
5795;SDS011;2924;51.458;7.046;2022-07-23T10:40:22;4.72;;;2.55;;
5795;SDS011;2924;51.458;7.046;2022-07-23T10:42:51;5.57;;;2.35;;
5795;SDS011;2924;51.458;7.046;2022-07-23T10:48:14;3.67;;;2.20;;
5795;SDS011;2924;51.458;7.046;2022-07-23T10:50:42;4.63;;;2.08;;
5795;SDS011;2924;51.458;7.046;2022-07-23T10:53:10;2.50;;;1.77;;
5795;SDS011;2924;51.458;7.046;2022-07-23T10:55:47;2.63;;;1.60;;
5795;SDS011;2924;51.458;7.046;2022-07-23T10:58:18;2.92;;;2.10;;
5795;SDS011;2924;51.458;7.046;2022-07-23T11:00:45;5.25;;;1.98;;
5795;SDS011;2924;51.458;7.046;2022-07-23T11:03:30;1.98;;;1.40;;
5795;SDS011;2924;51.458;7.046;2022-07-23T11:05:58;8.10;;;2.20;;
5795;SDS011;2924;51.458;7.046;2022-07-23T11:08:24;3.67;;;1.55;;
5795;SDS011;2924;51.458;7.046;2022-07-23T11:19:14;2.65;;;1.63;;
5795;SDS011;2924;51.458;7.046;2022-07-23T11:34:39;1.70;;;1.60;;
5795;SDS011;2924;51.458;7.046;2022-07-23T11:37:08;4.10;;;1.88;;
5795;SDS011;2924;51.458;7.046;2022-07-23T11:39:35;3.03;;;1.90;;
5795;SDS011;2924;51.458;7.046;2022-07-23T11:42:02;4.55;;;1.67;;
5795;SDS011;2924;51.458;7.046;2022-07-23T11:44:34;5.93;;;2.47;;
5795;SDS011;2924;51.458;7.046;2022-07-23T11:47:07;2.38;;;1.83;;
5795;SDS011;2924;51.458;7.046;2022-07-23T11:49:35;4.55;;;1.95;;
5795;SDS011;2924;51.458;7.046;2022-07-23T11:52:11;3.95;;;1.25;;
5795;SDS011;2924;51.458;7.046;2022-07-23T11:57:19;7.13;;;1.73;;
5795;SDS011;2924;51.458;7.046;2022-07-23T11:59:51;2.05;;;1.45;;
5795;SDS011;2924;51.458;7.046;2022-07-23T12:02:20;5.28;;;1.40;;
5795;SDS011;2924;51.458;7.046;2022-07-23T12:04:49;3.70;;;1.42;;
5795;SDS011;2924;51.458;7.046;2022-07-23T12:07:29;2.17;;;1.65;;
5795;SDS011;2924;51.458;7.046;2022-07-23T12:10:22;4.05;;;1.67;;
5795;SDS011;2924;51.458;7.046;2022-07-23T12:13:27;5.18;;;1.60;;
5795;SDS011;2924;51.458;7.046;2022-07-23T12:15:52;2.00;;;1.52;;
5795;SDS011;2924;51.458;7.046;2022-07-23T12:18:25;1.90;;;1.45;;
5795;SDS011;2924;51.458;7.046;2022-07-23T12:20:55;1.80;;;1.38;;
5795;SDS011;2924;51.458;7.046;2022-07-23T12:23:24;3.55;;;1.88;;
5795;SDS011;2924;51.458;7.046;2022-07-23T12:25:51;2.83;;;1.27;;
5795;SDS011;2924;51.458;7.046;2022-07-23T12:28:19;3.15;;;1.20;;
5795;SDS011;2924;51.458;7.046;2022-07-23T12:30:50;4.32;;;1.38;;
5795;SDS011;2924;51.458;7.046;2022-07-23T12:33:27;6.88;;;1.02;;
5795;SDS011;2924;51.458;7.046;2022-07-23T12:35:58;1.70;;;1.20;;
5795;SDS011;2924;51.458;7.046;2022-07-23T12:38:26;1.35;;;1.20;;
5795;SDS011;2924;51.458;7.046;2022-07-23T12:41:00;8.52;;;1.35;;
5795;SDS011;2924;51.458;7.046;2022-07-23T12:43:30;1.50;;;1.40;;
5795;SDS011;2924;51.458;7.046;2022-07-23T12:48:50;3.50;;;1.45;;
5795;SDS011;2924;51.458;7.046;2022-07-23T12:51:24;1.75;;;1.40;;
5795;SDS011;2924;51.458;7.046;2022-07-23T12:53:58;2.53;;;1.90;;
5795;SDS011;2924;51.458;7.046;2022-07-23T12:56:28;1.50;;;1.40;;
5795;SDS011;2924;51.458;7.046;2022-07-23T12:58:59;2.08;;;1.73;;
5795;SDS011;2924;51.458;7.046;2022-07-23T13:01:35;1.63;;;1.27;;
5795;SDS011;2924;51.458;7.046;2022-07-23T13:06:42;1.80;;;1.45;;
5795;SDS011;2924;51.458;7.046;2022-07-23T13:09:14;2.05;;;1.40;;
5795;SDS011;2924;51.458;7.046;2022-07-23T13:11:45;2.60;;;1.40;;
5795;SDS011;2924;51.458;7.046;2022-07-23T13:14:13;3.33;;;1.20;;
5795;SDS011;2924;51.458;7.046;2022-07-23T13:16:39;2.00;;;1.33;;
5795;SDS011;2924;51.458;7.046;2022-07-23T13:19:06;1.23;;;1.13;;
5795;SDS011;2924;51.458;7.046;2022-07-23T13:21:32;1.92;;;1.48;;
5795;SDS011;2924;51.458;7.046;2022-07-23T13:23:58;3.17;;;1.15;;
5795;SDS011;2924;51.458;7.046;2022-07-23T13:26:25;1.60;;;1.27;;
5795;SDS011;2924;51.458;7.046;2022-07-23T13:28:51;3.47;;;1.75;;
5795;SDS011;2924;51.458;7.046;2022-07-23T13:31:17;1.33;;;1.10;;
5795;SDS011;2924;51.458;7.046;2022-07-23T13:33:42;2.30;;;1.40;;
5795;SDS011;2924;51.458;7.046;2022-07-23T13:36:08;3.55;;;1.42;;
5795;SDS011;2924;51.458;7.046;2022-07-23T13:38:34;2.78;;;1.67;;
5795;SDS011;2924;51.458;7.046;2022-07-23T13:41:00;1.98;;;1.40;;
5795;SDS011;2924;51.458;7.046;2022-07-23T13:43:28;3.25;;;1.60;;
5795;SDS011;2924;51.458;7.046;2022-07-23T13:45:54;1.48;;;1.33;;
5795;SDS011;2924;51.458;7.046;2022-07-23T13:48:20;1.45;;;1.33;;
5795;SDS011;2924;51.458;7.046;2022-07-23T13:50:46;11.75;;;1.70;;
5795;SDS011;2924;51.458;7.046;2022-07-23T13:53:13;1.50;;;1.40;;
5795;SDS011;2924;51.458;7.046;2022-07-23T13:55:45;2.30;;;1.30;;
5795;SDS011;2924;51.458;7.046;2022-07-23T13:58:12;1.50;;;1.30;;
5795;SDS011;2924;51.458;7.046;2022-07-23T14:00:39;1.63;;;1.50;;
5795;SDS011;2924;51.458;7.046;2022-07-23T14:03:07;2.08;;;1.05;;
5795;SDS011;2924;51.458;7.046;2022-07-23T14:05:34;1.98;;;1.77;;
5795;SDS011;2924;51.458;7.046;2022-07-23T14:08:00;1.45;;;1.35;;
5795;SDS011;2924;51.458;7.046;2022-07-23T14:10:26;2.83;;;1.73;;
5795;SDS011;2924;51.458;7.046;2022-07-23T14:12:52;2.75;;;1.40;;
5795;SDS011;2924;51.458;7.046;2022-07-23T14:15:21;8.55;;;1.95;;
5795;SDS011;2924;51.458;7.046;2022-07-23T14:17:48;4.50;;;1.45;;
5795;SDS011;2924;51.458;7.046;2022-07-23T14:20:14;2.25;;;1.50;;
5795;SDS011;2924;51.458;7.046;2022-07-23T14:22:41;1.63;;;1.52;;
5795;SDS011;2924;51.458;7.046;2022-07-23T14:25:07;1.52;;;1.42;;
5795;SDS011;2924;51.458;7.046;2022-07-23T14:27:34;2.58;;;1.63;;
5795;SDS011;2924;51.458;7.046;2022-07-23T14:30:00;1.83;;;1.73;;
5795;SDS011;2924;51.458;7.046;2022-07-23T14:32:26;2.75;;;1.90;;
5795;SDS011;2924;51.458;7.046;2022-07-23T14:34:52;1.88;;;1.45;;
5795;SDS011;2924;51.458;7.046;2022-07-23T14:37:18;3.15;;;1.75;;
5795;SDS011;2924;51.458;7.046;2022-07-23T14:39:44;3.42;;;2.20;;
5795;SDS011;2924;51.458;7.046;2022-07-23T14:42:10;1.85;;;1.63;;
5795;SDS011;2924;51.458;7.046;2022-07-23T14:44:37;2.42;;;2.03;;
5795;SDS011;2924;51.458;7.046;2022-07-23T14:47:03;2.05;;;1.70;;
5795;SDS011;2924;51.458;7.046;2022-07-23T14:49:30;2.45;;;2.05;;
5795;SDS011;2924;51.458;7.046;2022-07-23T14:51:57;4.65;;;1.63;;
5795;SDS011;2924;51.458;7.046;2022-07-23T14:54:23;1.70;;;1.60;;
5795;SDS011;2924;51.458;7.046;2022-07-23T14:56:51;1.77;;;1.55;;
5795;SDS011;2924;51.458;7.046;2022-07-23T14:59:17;3.88;;;1.77;;
5795;SDS011;2924;51.458;7.046;2022-07-23T15:01:43;1.90;;;1.80;;
5795;SDS011;2924;51.458;7.046;2022-07-23T15:04:09;2.08;;;1.55;;
5795;SDS011;2924;51.458;7.046;2022-07-23T15:06:34;6.20;;;2.17;;
5795;SDS011;2924;51.458;7.046;2022-07-23T15:09:00;1.63;;;1.52;;
5795;SDS011;2924;51.458;7.046;2022-07-23T15:11:29;9.38;;;1.98;;
5795;SDS011;2924;51.458;7.046;2022-07-23T15:13:58;3.83;;;1.90;;
5795;SDS011;2924;51.458;7.046;2022-07-23T15:16:25;9.63;;;2.28;;
5795;SDS011;2924;51.458;7.046;2022-07-23T15:18:50;5.93;;;1.95;;
5795;SDS011;2924;51.458;7.046;2022-07-23T15:21:16;5.28;;;4.03;;
5795;SDS011;2924;51.458;7.046;2022-07-23T15:23:42;3.65;;;2.50;;
5795;SDS011;2924;51.458;7.046;2022-07-23T15:26:07;2.08;;;1.48;;
5795;SDS011;2924;51.458;7.046;2022-07-23T15:28:34;2.15;;;1.80;;
5795;SDS011;2924;51.458;7.046;2022-07-23T15:31:00;2.17;;;1.95;;
5795;SDS011;2924;51.458;7.046;2022-07-23T15:33:27;1.80;;;1.70;;
5795;SDS011;2924;51.458;7.046;2022-07-23T15:35:52;5.25;;;2.50;;
5795;SDS011;2924;51.458;7.046;2022-07-23T15:38:21;3.60;;;2.25;;
5795;SDS011;2924;51.458;7.046;2022-07-23T15:40:47;6.35;;;2.53;;
5795;SDS011;2924;51.458;7.046;2022-07-23T15:43:12;2.97;;;2.28;;
5795;SDS011;2924;51.458;7.046;2022-07-23T15:45:39;4.25;;;1.90;;
5795;SDS011;2924;51.458;7.046;2022-07-23T15:48:05;2.17;;;1.85;;
5795;SDS011;2924;51.458;7.046;2022-07-23T15:50:31;2.05;;;1.95;;
5795;SDS011;2924;51.458;7.046;2022-07-23T15:52:57;2.08;;;1.90;;
5795;SDS011;2924;51.458;7.046;2022-07-23T15:55:22;2.58;;;1.90;;